sensor_id;sensor_type;location;lat;lon;timestamp;P1;durP1;ratioP1;P2;durP2;ratioP2
29432;SDS011;16405;53.964;13.448;2023-06-10T00:04:14;16.50;;;3.20;;
29432;SDS011;16405;53.964;13.448;2023-06-10T00:06:42;17.48;;;3.53;;
29432;SDS011;16405;53.964;13.448;2023-06-10T00:09:14;20.55;;;2.97;;
29432;SDS011;16405;53.964;13.448;2023-06-10T00:11:41;13.75;;;2.72;;
29432;SDS011;16405;53.964;13.448;2023-06-10T00:14:07;14.45;;;2.50;;
29432;SDS011;16405;53.964;13.448;2023-06-10T00:16:34;13.95;;;2.83;;
29432;SDS011;16405;53.964;13.448;2023-06-10T00:19:01;7.95;;;2.40;;
29432;SDS011;16405;53.964;13.448;2023-06-10T00:21:29;16.90;;;3.45;;
29432;SDS011;16405;53.964;13.448;2023-06-10T00:24:02;26.48;;;3.97;;
29432;SDS011;16405;53.964;13.448;2023-06-10T00:26:34;14.55;;;3.05;;
29432;SDS011;16405;53.964;13.448;2023-06-10T00:29:00;15.75;;;3.20;;
29432;SDS011;16405;53.964;13.448;2023-06-10T00:31:27;15.27;;;2.90;;
29432;SDS011;16405;53.964;13.448;2023-06-10T00:33:52;10.52;;;2.60;;
29432;SDS011;16405;53.964;13.448;2023-06-10T00:38:44;19.88;;;3.45;;
29432;SDS011;16405;53.964;13.448;2023-06-10T00:41:10;16.17;;;3.03;;
29432;SDS011;16405;53.964;13.448;2023-06-10T00:46:02;16.27;;;2.70;;
29432;SDS011;16405;53.964;13.448;2023-06-10T00:50:53;23.08;;;3.30;;
29432;SDS011;16405;53.964;13.448;2023-06-10T00:53:21;14.48;;;3.00;;
29432;SDS011;16405;53.964;13.448;2023-06-10T00:55:47;14.80;;;2.75;;
29432;SDS011;16405;53.964;13.448;2023-06-10T00:58:13;15.98;;;3.30;;
29432;SDS011;16405;53.964;13.448;2023-06-10T01:00:40;14.77;;;2.92;;
29432;SDS011;16405;53.964;13.448;2023-06-10T01:03:06;12.00;;;2.88;;
29432;SDS011;16405;53.964;13.448;2023-06-10T01:05:35;22.23;;;3.55;;
29432;SDS011;16405;53.964;13.448;2023-06-10T01:08:11;19.75;;;3.20;;
29432;SDS011;16405;53.964;13.448;2023-06-10T01:11:04;24.25;;;3.50;;
29432;SDS011;16405;53.964;13.448;2023-06-10T01:13:38;12.45;;;3.00;;
29432;SDS011;16405;53.964;13.448;2023-06-10T01:16:06;17.30;;;2.97;;
29432;SDS011;16405;53.964;13.448;2023-06-10T01:18:33;15.65;;;3.28;;
29432;SDS011;16405;53.964;13.448;2023-06-10T01:20:59;13.10;;;3.20;;
29432;SDS011;16405;53.964;13.448;2023-06-10T01:28:31;17.20;;;3.15;;
29432;SDS011;16405;53.964;13.448;2023-06-10T01:31:56;17.65;;;2.97;;
29432;SDS011;16405;53.964;13.448;2023-06-10T01:34:55;15.38;;;3.17;;
29432;SDS011;16405;53.964;13.448;2023-06-10T01:37:22;17.70;;;2.45;;
29432;SDS011;16405;53.964;13.448;2023-06-10T01:39:51;13.50;;;2.80;;
29432;SDS011;16405;53.964;13.448;2023-06-10T01:42:19;13.52;;;3.05;;
29432;SDS011;16405;53.964;13.448;2023-06-10T01:44:46;13.90;;;3.10;;
29432;SDS011;16405;53.964;13.448;2023-06-10T01:47:12;14.10;;;2.97;;
29432;SDS011;16405;53.964;13.448;2023-06-10T01:52:03;13.82;;;3.05;;
29432;SDS011;16405;53.964;13.448;2023-06-10T01:54:30;18.02;;;3.10;;
29432;SDS011;16405;53.964;13.448;2023-06-10T01:56:56;19.45;;;3.05;;
29432;SDS011;16405;53.964;13.448;2023-06-10T01:59:22;12.70;;;2.35;;
29432;SDS011;16405;53.964;13.448;2023-06-10T02:04:13;11.65;;;2.90;;
29432;SDS011;16405;53.964;13.448;2023-06-10T02:06:39;26.08;;;3.92;;
29432;SDS011;16405;53.964;13.448;2023-06-10T02:09:05;17.13;;;3.20;;
29432;SDS011;16405;53.964;13.448;2023-06-10T02:13:56;17.67;;;3.85;;
29432;SDS011;16405;53.964;13.448;2023-06-10T02:16:22;14.60;;;3.17;;
29432;SDS011;16405;53.964;13.448;2023-06-10T02:18:49;12.85;;;2.80;;
29432;SDS011;16405;53.964;13.448;2023-06-10T02:21:14;13.80;;;3.00;;
29432;SDS011;16405;53.964;13.448;2023-06-10T02:23:40;21.27;;;3.40;;
29432;SDS011;16405;53.964;13.448;2023-06-10T02:28:32;17.15;;;3.78;;
29432;SDS011;16405;53.964;13.448;2023-06-10T02:30:57;18.88;;;2.95;;
29432;SDS011;16405;53.964;13.448;2023-06-10T02:33:24;19.00;;;3.53;;
29432;SDS011;16405;53.964;13.448;2023-06-10T02:35:50;12.57;;;3.10;;
29432;SDS011;16405;53.964;13.448;2023-06-10T02:40:42;17.92;;;3.30;;
29432;SDS011;16405;53.964;13.448;2023-06-10T02:43:08;16.88;;;3.22;;
29432;SDS011;16405;53.964;13.448;2023-06-10T02:45:34;15.43;;;3.58;;
29432;SDS011;16405;53.964;13.448;2023-06-10T02:48:01;19.08;;;3.25;;
29432;SDS011;16405;53.964;13.448;2023-06-10T02:50:26;19.33;;;3.95;;
29432;SDS011;16405;53.964;13.448;2023-06-10T02:52:52;17.33;;;3.65;;
29432;SDS011;16405;53.964;13.448;2023-06-10T02:57:44;12.50;;;3.42;;
29432;SDS011;16405;53.964;13.448;2023-06-10T03:02:39;14.60;;;3.45;;
29432;SDS011;16405;53.964;13.448;2023-06-10T03:05:05;13.15;;;2.22;;
29432;SDS011;16405;53.964;13.448;2023-06-10T03:07:35;17.48;;;3.33;;
29432;SDS011;16405;53.964;13.448;2023-06-10T03:10:02;26.33;;;4.57;;
29432;SDS011;16405;53.964;13.448;2023-06-10T03:12:28;16.73;;;3.70;;
29432;SDS011;16405;53.964;13.448;2023-06-10T03:14:54;14.73;;;3.35;;
29432;SDS011;16405;53.964;13.448;2023-06-10T03:19:46;20.70;;;3.53;;
29432;SDS011;16405;53.964;13.448;2023-06-10T03:22:15;11.40;;;3.28;;
29432;SDS011;16405;53.964;13.448;2023-06-10T03:24:41;19.98;;;4.10;;
29432;SDS011;16405;53.964;13.448;2023-06-10T03:27:09;14.73;;;3.13;;
29432;SDS011;16405;53.964;13.448;2023-06-10T03:29:37;19.73;;;3.80;;
29432;SDS011;16405;53.964;13.448;2023-06-10T03:32:04;16.08;;;3.63;;
29432;SDS011;16405;53.964;13.448;2023-06-10T03:34:30;17.00;;;4.03;;
29432;SDS011;16405;53.964;13.448;2023-06-10T03:36:57;14.93;;;3.40;;
29432;SDS011;16405;53.964;13.448;2023-06-10T03:39:23;14.07;;;3.47;;
29432;SDS011;16405;53.964;13.448;2023-06-10T03:41:49;14.90;;;3.72;;
29432;SDS011;16405;53.964;13.448;2023-06-10T03:44:16;24.38;;;4.30;;
29432;SDS011;16405;53.964;13.448;2023-06-10T03:46:42;12.25;;;2.97;;
29432;SDS011;16405;53.964;13.448;2023-06-10T03:49:07;17.58;;;3.97;;
29432;SDS011;16405;53.964;13.448;2023-06-10T03:51:35;16.23;;;3.38;;
29432;SDS011;16405;53.964;13.448;2023-06-10T03:54:01;21.85;;;3.60;;
29432;SDS011;16405;53.964;13.448;2023-06-10T03:56:28;15.77;;;4.07;;
29432;SDS011;16405;53.964;13.448;2023-06-10T03:58:54;19.52;;;4.13;;
29432;SDS011;16405;53.964;13.448;2023-06-10T04:01:20;17.33;;;3.67;;
29432;SDS011;16405;53.964;13.448;2023-06-10T04:03:48;17.30;;;3.40;;
29432;SDS011;16405;53.964;13.448;2023-06-10T04:06:16;15.52;;;3.88;;
29432;SDS011;16405;53.964;13.448;2023-06-10T04:08:42;14.82;;;3.65;;
29432;SDS011;16405;53.964;13.448;2023-06-10T04:11:08;17.27;;;3.92;;
29432;SDS011;16405;53.964;13.448;2023-06-10T04:13:34;18.85;;;4.30;;
29432;SDS011;16405;53.964;13.448;2023-06-10T04:16:01;16.20;;;4.13;;
29432;SDS011;16405;53.964;13.448;2023-06-10T04:18:28;15.43;;;3.67;;
29432;SDS011;16405;53.964;13.448;2023-06-10T04:20:54;19.33;;;3.35;;
29432;SDS011;16405;53.964;13.448;2023-06-10T04:23:20;16.67;;;4.00;;
29432;SDS011;16405;53.964;13.448;2023-06-10T04:25:46;16.00;;;3.90;;
29432;SDS011;16405;53.964;13.448;2023-06-10T04:28:14;20.58;;;4.43;;
29432;SDS011;16405;53.964;13.448;2023-06-10T04:30:40;14.45;;;4.03;;
29432;SDS011;16405;53.964;13.448;2023-06-10T04:33:06;13.63;;;3.33;;
29432;SDS011;16405;53.964;13.448;2023-06-10T04:35:34;14.40;;;3.70;;
29432;SDS011;16405;53.964;13.448;2023-06-10T04:37:59;20.75;;;4.13;;
29432;SDS011;16405;53.964;13.448;2023-06-10T04:40:27;20.48;;;4.38;;
29432;SDS011;16405;53.964;13.448;2023-06-10T04:42:53;16.10;;;3.83;;
29432;SDS011;16405;53.964;13.448;2023-06-10T04:45:19;17.42;;;3.97;;
29432;SDS011;16405;53.964;13.448;2023-06-10T04:47:45;18.80;;;4.00;;
29432;SDS011;16405;53.964;13.448;2023-06-10T04:52:37;14.52;;;4.15;;
29432;SDS011;16405;53.964;13.448;2023-06-10T04:57:29;18.33;;;4.00;;
29432;SDS011;16405;53.964;13.448;2023-06-10T05:02:23;16.65;;;3.95;;
29432;SDS011;16405;53.964;13.448;2023-06-10T05:04:48;13.20;;;3.85;;
29432;SDS011;16405;53.964;13.448;2023-06-10T05:07:15;14.20;;;3.80;;
29432;SDS011;16405;53.964;13.448;2023-06-10T05:09:41;17.17;;;4.30;;
29432;SDS011;16405;53.964;13.448;2023-06-10T05:12:07;21.00;;;3.80;;
29432;SDS011;16405;53.964;13.448;2023-06-10T05:14:33;16.25;;;3.88;;
29432;SDS011;16405;53.964;13.448;2023-06-10T05:16:59;14.00;;;3.60;;
29432;SDS011;16405;53.964;13.448;2023-06-10T05:21:52;14.68;;;3.65;;
29432;SDS011;16405;53.964;13.448;2023-06-10T05:26:43;16.50;;;4.00;;
29432;SDS011;16405;53.964;13.448;2023-06-10T05:31:35;16.58;;;4.07;;
29432;SDS011;16405;53.964;13.448;2023-06-10T05:34:01;11.73;;;3.72;;
29432;SDS011;16405;53.964;13.448;2023-06-10T05:38:52;17.42;;;3.97;;
29432;SDS011;16405;53.964;13.448;2023-06-10T05:41:18;12.25;;;3.25;;
29432;SDS011;16405;53.964;13.448;2023-06-10T05:43:45;16.80;;;4.43;;
29432;SDS011;16405;53.964;13.448;2023-06-10T05:46:11;11.57;;;4.25;;
29432;SDS011;16405;53.964;13.448;2023-06-10T05:48:37;11.60;;;5.10;;
29432;SDS011;16405;53.964;13.448;2023-06-10T05:51:03;17.88;;;5.05;;
29432;SDS011;16405;53.964;13.448;2023-06-10T05:53:29;14.43;;;6.25;;
29432;SDS011;16405;53.964;13.448;2023-06-10T05:58:22;11.18;;;5.70;;
29432;SDS011;16405;53.964;13.448;2023-06-10T06:00:49;18.17;;;6.00;;
29432;SDS011;16405;53.964;13.448;2023-06-10T06:03:15;23.25;;;7.03;;
29432;SDS011;16405;53.964;13.448;2023-06-10T06:05:42;11.68;;;8.25;;
29432;SDS011;16405;53.964;13.448;2023-06-10T06:08:09;16.67;;;7.90;;
29432;SDS011;16405;53.964;13.448;2023-06-10T06:10:35;21.38;;;8.68;;
29432;SDS011;16405;53.964;13.448;2023-06-10T06:13:01;16.33;;;10.55;;
29432;SDS011;16405;53.964;13.448;2023-06-10T06:15:27;20.63;;;9.77;;
29432;SDS011;16405;53.964;13.448;2023-06-10T06:17:53;20.10;;;10.07;;
29432;SDS011;16405;53.964;13.448;2023-06-10T06:20:20;16.17;;;10.50;;
29432;SDS011;16405;53.964;13.448;2023-06-10T06:22:47;16.35;;;10.45;;
29432;SDS011;16405;53.964;13.448;2023-06-10T06:25:13;16.58;;;10.82;;
29432;SDS011;16405;53.964;13.448;2023-06-10T06:27:39;25.45;;;11.93;;
29432;SDS011;16405;53.964;13.448;2023-06-10T06:30:05;16.08;;;8.05;;
29432;SDS011;16405;53.964;13.448;2023-06-10T06:32:31;12.80;;;6.63;;
29432;SDS011;16405;53.964;13.448;2023-06-10T06:34:57;22.00;;;13.18;;
29432;SDS011;16405;53.964;13.448;2023-06-10T06:37:24;20.98;;;11.23;;
29432;SDS011;16405;53.964;13.448;2023-06-10T06:39:50;22.95;;;11.93;;
29432;SDS011;16405;53.964;13.448;2023-06-10T06:42:19;18.85;;;10.27;;
29432;SDS011;16405;53.964;13.448;2023-06-10T06:44:46;13.35;;;8.18;;
29432;SDS011;16405;53.964;13.448;2023-06-10T06:47:12;20.25;;;12.52;;
29432;SDS011;16405;53.964;13.448;2023-06-10T06:49:38;22.15;;;11.50;;
29432;SDS011;16405;53.964;13.448;2023-06-10T06:52:04;19.20;;;12.15;;
29432;SDS011;16405;53.964;13.448;2023-06-10T06:54:31;14.57;;;10.45;;
29432;SDS011;16405;53.964;13.448;2023-06-10T06:56:57;12.73;;;8.45;;
29432;SDS011;16405;53.964;13.448;2023-06-10T06:59:23;19.60;;;11.95;;
29432;SDS011;16405;53.964;13.448;2023-06-10T07:01:50;19.42;;;12.30;;
29432;SDS011;16405;53.964;13.448;2023-06-10T07:04:16;18.98;;;11.35;;
29432;SDS011;16405;53.964;13.448;2023-06-10T07:06:44;20.55;;;11.32;;
29432;SDS011;16405;53.964;13.448;2023-06-10T07:09:10;18.98;;;10.25;;
29432;SDS011;16405;53.964;13.448;2023-06-10T07:11:36;17.70;;;10.52;;
29432;SDS011;16405;53.964;13.448;2023-06-10T07:14:02;24.63;;;10.68;;
29432;SDS011;16405;53.964;13.448;2023-06-10T07:16:28;18.25;;;10.77;;
29432;SDS011;16405;53.964;13.448;2023-06-10T07:18:54;18.13;;;10.98;;
29432;SDS011;16405;53.964;13.448;2023-06-10T07:21:20;18.60;;;11.20;;
29432;SDS011;16405;53.964;13.448;2023-06-10T07:23:48;18.00;;;9.23;;
29432;SDS011;16405;53.964;13.448;2023-06-10T07:26:14;15.60;;;8.98;;
29432;SDS011;16405;53.964;13.448;2023-06-10T07:28:40;15.70;;;9.88;;
29432;SDS011;16405;53.964;13.448;2023-06-10T07:31:07;17.23;;;9.73;;
29432;SDS011;16405;53.964;13.448;2023-06-10T07:33:33;19.27;;;9.32;;
29432;SDS011;16405;53.964;13.448;2023-06-10T07:36:02;22.38;;;10.68;;
29432;SDS011;16405;53.964;13.448;2023-06-10T07:38:28;16.48;;;10.20;;
29432;SDS011;16405;53.964;13.448;2023-06-10T07:40:53;18.45;;;10.32;;
29432;SDS011;16405;53.964;13.448;2023-06-10T07:43:19;16.85;;;9.05;;
29432;SDS011;16405;53.964;13.448;2023-06-10T07:45:45;17.90;;;9.60;;
29432;SDS011;16405;53.964;13.448;2023-06-10T07:48:11;14.18;;;8.40;;
29432;SDS011;16405;53.964;13.448;2023-06-10T07:50:37;21.58;;;11.25;;
29432;SDS011;16405;53.964;13.448;2023-06-10T07:53:02;20.60;;;8.45;;
29432;SDS011;16405;53.964;13.448;2023-06-10T07:55:29;22.05;;;10.55;;
29432;SDS011;16405;53.964;13.448;2023-06-10T07:57:54;17.08;;;10.93;;
29432;SDS011;16405;53.964;13.448;2023-06-10T08:00:20;15.38;;;11.95;;
29432;SDS011;16405;53.964;13.448;2023-06-10T08:02:46;16.98;;;8.40;;
29432;SDS011;16405;53.964;13.448;2023-06-10T08:05:13;14.15;;;9.55;;
29432;SDS011;16405;53.964;13.448;2023-06-10T08:07:39;19.70;;;10.55;;
29432;SDS011;16405;53.964;13.448;2023-06-10T08:10:05;20.70;;;9.25;;
29432;SDS011;16405;53.964;13.448;2023-06-10T08:12:32;13.77;;;10.65;;
29432;SDS011;16405;53.964;13.448;2023-06-10T08:15:00;16.75;;;10.73;;
29432;SDS011;16405;53.964;13.448;2023-06-10T08:17:26;15.18;;;10.32;;
29432;SDS011;16405;53.964;13.448;2023-06-10T08:19:52;15.77;;;7.43;;
29432;SDS011;16405;53.964;13.448;2023-06-10T08:22:18;15.43;;;7.40;;
29432;SDS011;16405;53.964;13.448;2023-06-10T08:24:51;13.23;;;5.72;;
29432;SDS011;16405;53.964;13.448;2023-06-10T08:27:17;14.23;;;6.00;;
29432;SDS011;16405;53.964;13.448;2023-06-10T08:29:43;16.10;;;7.60;;
29432;SDS011;16405;53.964;13.448;2023-06-10T08:32:09;15.00;;;7.50;;
29432;SDS011;16405;53.964;13.448;2023-06-10T08:34:37;15.23;;;5.97;;
29432;SDS011;16405;53.964;13.448;2023-06-10T08:37:06;14.27;;;6.15;;
29432;SDS011;16405;53.964;13.448;2023-06-10T08:39:32;15.80;;;6.05;;
29432;SDS011;16405;53.964;13.448;2023-06-10T08:42:10;16.63;;;6.25;;
29432;SDS011;16405;53.964;13.448;2023-06-10T08:45:05;13.77;;;6.57;;
29432;SDS011;16405;53.964;13.448;2023-06-10T08:47:35;13.35;;;6.70;;
29432;SDS011;16405;53.964;13.448;2023-06-10T08:50:06;15.45;;;6.63;;
29432;SDS011;16405;53.964;13.448;2023-06-10T08:52:36;10.57;;;5.90;;
29432;SDS011;16405;53.964;13.448;2023-06-10T08:55:10;11.85;;;7.30;;
29432;SDS011;16405;53.964;13.448;2023-06-10T08:57:44;12.50;;;6.55;;
29432;SDS011;16405;53.964;13.448;2023-06-10T09:00:13;14.95;;;6.03;;
29432;SDS011;16405;53.964;13.448;2023-06-10T09:02:42;15.73;;;6.50;;
29432;SDS011;16405;53.964;13.448;2023-06-10T09:05:09;10.38;;;6.60;;
29432;SDS011;16405;53.964;13.448;2023-06-10T09:07:35;15.07;;;7.57;;
29432;SDS011;16405;53.964;13.448;2023-06-10T09:10:02;12.50;;;6.78;;
29432;SDS011;16405;53.964;13.448;2023-06-10T09:12:31;19.95;;;7.05;;
29432;SDS011;16405;53.964;13.448;2023-06-10T09:15:00;14.38;;;6.40;;
29432;SDS011;16405;53.964;13.448;2023-06-10T09:17:29;15.40;;;7.18;;
29432;SDS011;16405;53.964;13.448;2023-06-10T09:20:06;17.55;;;7.28;;
29432;SDS011;16405;53.964;13.448;2023-06-10T09:22:33;20.75;;;6.45;;
29432;SDS011;16405;53.964;13.448;2023-06-10T09:25:06;14.10;;;6.95;;
29432;SDS011;16405;53.964;13.448;2023-06-10T09:27:50;11.73;;;5.55;;
29432;SDS011;16405;53.964;13.448;2023-06-10T09:30:27;22.58;;;7.22;;
29432;SDS011;16405;53.964;13.448;2023-06-10T09:33:05;16.92;;;6.50;;
29432;SDS011;16405;53.964;13.448;2023-06-10T09:35:48;20.80;;;6.68;;
29432;SDS011;16405;53.964;13.448;2023-06-10T09:38:21;11.60;;;5.45;;
29432;SDS011;16405;53.964;13.448;2023-06-10T09:40:59;15.48;;;7.57;;
29432;SDS011;16405;53.964;13.448;2023-06-10T09:46:25;17.40;;;6.28;;
29432;SDS011;16405;53.964;13.448;2023-06-10T09:49:02;12.55;;;6.63;;
29432;SDS011;16405;53.964;13.448;2023-06-10T09:51:31;15.18;;;7.40;;
29432;SDS011;16405;53.964;13.448;2023-06-10T09:53:59;18.35;;;7.47;;
29432;SDS011;16405;53.964;13.448;2023-06-10T09:56:33;15.18;;;8.00;;
29432;SDS011;16405;53.964;13.448;2023-06-10T09:59:10;16.83;;;6.25;;
29432;SDS011;16405;53.964;13.448;2023-06-10T10:01:36;9.63;;;4.85;;
29432;SDS011;16405;53.964;13.448;2023-06-10T10:04:05;14.88;;;7.10;;
29432;SDS011;16405;53.964;13.448;2023-06-10T10:06:34;16.85;;;7.40;;
29432;SDS011;16405;53.964;13.448;2023-06-10T10:09:01;16.65;;;6.47;;
29432;SDS011;16405;53.964;13.448;2023-06-10T10:11:31;13.43;;;7.28;;
29432;SDS011;16405;53.964;13.448;2023-06-10T10:13:59;16.33;;;7.05;;
29432;SDS011;16405;53.964;13.448;2023-06-10T10:16:39;14.90;;;7.05;;
29432;SDS011;16405;53.964;13.448;2023-06-10T10:19:10;13.07;;;7.13;;
29432;SDS011;16405;53.964;13.448;2023-06-10T10:21:44;18.98;;;7.15;;
29432;SDS011;16405;53.964;13.448;2023-06-10T10:24:27;14.07;;;6.38;;
29432;SDS011;16405;53.964;13.448;2023-06-10T10:27:01;16.40;;;7.15;;
29432;SDS011;16405;53.964;13.448;2023-06-10T10:29:33;13.10;;;6.93;;
29432;SDS011;16405;53.964;13.448;2023-06-10T10:32:05;13.43;;;7.05;;
29432;SDS011;16405;53.964;13.448;2023-06-10T10:34:42;19.75;;;7.38;;
29432;SDS011;16405;53.964;13.448;2023-06-10T10:37:43;11.65;;;6.95;;
29432;SDS011;16405;53.964;13.448;2023-06-10T10:40:10;14.88;;;7.18;;
29432;SDS011;16405;53.964;13.448;2023-06-10T10:42:37;10.93;;;6.25;;
29432;SDS011;16405;53.964;13.448;2023-06-10T10:45:04;10.52;;;4.75;;
29432;SDS011;16405;53.964;13.448;2023-06-10T10:47:32;11.32;;;7.25;;
29432;SDS011;16405;53.964;13.448;2023-06-10T10:50:00;9.00;;;6.85;;
29432;SDS011;16405;53.964;13.448;2023-06-10T10:52:26;13.48;;;7.32;;
29432;SDS011;16405;53.964;13.448;2023-06-10T10:55:12;11.55;;;6.10;;
29432;SDS011;16405;53.964;13.448;2023-06-10T10:57:39;11.07;;;6.88;;
29432;SDS011;16405;53.964;13.448;2023-06-10T11:00:05;17.60;;;7.00;;
29432;SDS011;16405;53.964;13.448;2023-06-10T11:02:36;14.35;;;6.90;;
29432;SDS011;16405;53.964;13.448;2023-06-10T11:05:12;12.10;;;6.28;;
29432;SDS011;16405;53.964;13.448;2023-06-10T11:07:53;18.83;;;6.45;;
29432;SDS011;16405;53.964;13.448;2023-06-10T11:10:31;12.65;;;6.60;;
29432;SDS011;16405;53.964;13.448;2023-06-10T11:13:05;18.08;;;6.38;;
29432;SDS011;16405;53.964;13.448;2023-06-10T11:15:38;15.23;;;6.80;;
29432;SDS011;16405;53.964;13.448;2023-06-10T11:18:30;16.27;;;6.63;;
29432;SDS011;16405;53.964;13.448;2023-06-10T11:21:04;21.48;;;6.45;;
29432;SDS011;16405;53.964;13.448;2023-06-10T11:31:29;8.25;;;5.72;;
29432;SDS011;16405;53.964;13.448;2023-06-10T11:34:05;12.18;;;6.40;;
29432;SDS011;16405;53.964;13.448;2023-06-10T11:36:33;43.78;;;7.88;;
29432;SDS011;16405;53.964;13.448;2023-06-10T11:39:05;13.55;;;6.20;;
29432;SDS011;16405;53.964;13.448;2023-06-10T11:41:34;15.73;;;6.95;;
29432;SDS011;16405;53.964;13.448;2023-06-10T11:46:35;10.32;;;5.13;;
29432;SDS011;16405;53.964;13.448;2023-06-10T11:49:02;12.85;;;6.03;;
29432;SDS011;16405;53.964;13.448;2023-06-10T11:51:29;10.52;;;5.70;;
29432;SDS011;16405;53.964;13.448;2023-06-10T11:54:01;10.65;;;5.63;;
29432;SDS011;16405;53.964;13.448;2023-06-10T11:56:28;16.25;;;6.22;;
29432;SDS011;16405;53.964;13.448;2023-06-10T11:58:58;15.48;;;6.63;;
29432;SDS011;16405;53.964;13.448;2023-06-10T12:01:31;13.63;;;6.63;;
29432;SDS011;16405;53.964;13.448;2023-06-10T12:09:24;11.05;;;6.40;;
29432;SDS011;16405;53.964;13.448;2023-06-10T12:12:00;14.18;;;6.57;;
29432;SDS011;16405;53.964;13.448;2023-06-10T12:17:43;8.75;;;5.43;;
29432;SDS011;16405;53.964;13.448;2023-06-10T12:20:20;13.10;;;5.63;;
29432;SDS011;16405;53.964;13.448;2023-06-10T12:23:00;11.05;;;5.68;;
29432;SDS011;16405;53.964;13.448;2023-06-10T12:25:36;13.68;;;5.20;;
29432;SDS011;16405;53.964;13.448;2023-06-10T12:28:03;8.88;;;4.03;;
29432;SDS011;16405;53.964;13.448;2023-06-10T12:30:29;12.88;;;5.47;;
29432;SDS011;16405;53.964;13.448;2023-06-10T12:32:57;6.43;;;4.15;;
29432;SDS011;16405;53.964;13.448;2023-06-10T12:35:26;9.40;;;6.07;;
29432;SDS011;16405;53.964;13.448;2023-06-10T12:40:36;12.65;;;6.10;;
29432;SDS011;16405;53.964;13.448;2023-06-10T12:43:05;13.55;;;5.60;;
29432;SDS011;16405;53.964;13.448;2023-06-10T12:45:32;16.45;;;6.45;;
29432;SDS011;16405;53.964;13.448;2023-06-10T12:50:35;17.27;;;5.57;;
29432;SDS011;16405;53.964;13.448;2023-06-10T12:53:05;15.23;;;6.60;;
29432;SDS011;16405;53.964;13.448;2023-06-10T12:55:32;15.02;;;5.95;;
29432;SDS011;16405;53.964;13.448;2023-06-10T12:57:58;13.57;;;5.78;;
29432;SDS011;16405;53.964;13.448;2023-06-10T13:00:26;14.23;;;5.85;;
29432;SDS011;16405;53.964;13.448;2023-06-10T13:02:56;10.57;;;6.05;;
29432;SDS011;16405;53.964;13.448;2023-06-10T13:05:23;11.65;;;5.78;;
29432;SDS011;16405;53.964;13.448;2023-06-10T13:07:49;12.98;;;5.90;;
29432;SDS011;16405;53.964;13.448;2023-06-10T13:10:15;13.90;;;6.13;;
29432;SDS011;16405;53.964;13.448;2023-06-10T13:12:42;13.07;;;6.85;;
29432;SDS011;16405;53.964;13.448;2023-06-10T13:15:09;10.02;;;4.47;;
29432;SDS011;16405;53.964;13.448;2023-06-10T13:17:35;13.43;;;5.13;;
29432;SDS011;16405;53.964;13.448;2023-06-10T13:20:05;12.70;;;5.50;;
29432;SDS011;16405;53.964;13.448;2023-06-10T13:22:33;16.10;;;6.05;;
29432;SDS011;16405;53.964;13.448;2023-06-10T13:25:04;13.15;;;5.50;;
29432;SDS011;16405;53.964;13.448;2023-06-10T13:27:34;17.20;;;4.72;;
29432;SDS011;16405;53.964;13.448;2023-06-10T13:30:04;18.77;;;5.25;;
29432;SDS011;16405;53.964;13.448;2023-06-10T13:32:31;12.25;;;4.75;;
29432;SDS011;16405;53.964;13.448;2023-06-10T13:34:58;10.68;;;5.35;;
29432;SDS011;16405;53.964;13.448;2023-06-10T13:37:26;17.00;;;6.20;;
29432;SDS011;16405;53.964;13.448;2023-06-10T13:39:52;17.45;;;6.82;;
29432;SDS011;16405;53.964;13.448;2023-06-10T13:42:18;10.20;;;4.32;;
29432;SDS011;16405;53.964;13.448;2023-06-10T13:44:45;15.13;;;4.05;;
29432;SDS011;16405;53.964;13.448;2023-06-10T13:47:15;16.45;;;3.63;;
29432;SDS011;16405;53.964;13.448;2023-06-10T13:49:41;16.00;;;5.50;;
29432;SDS011;16405;53.964;13.448;2023-06-10T13:52:07;18.48;;;4.60;;
29432;SDS011;16405;53.964;13.448;2023-06-10T13:54:33;17.50;;;5.63;;
29432;SDS011;16405;53.964;13.448;2023-06-10T13:57:02;24.15;;;4.80;;
29432;SDS011;16405;53.964;13.448;2023-06-10T13:59:29;14.15;;;5.20;;
29432;SDS011;16405;53.964;13.448;2023-06-10T14:01:55;16.38;;;6.63;;
29432;SDS011;16405;53.964;13.448;2023-06-10T14:04:22;24.38;;;5.80;;
29432;SDS011;16405;53.964;13.448;2023-06-10T14:06:48;13.85;;;5.78;;
29432;SDS011;16405;53.964;13.448;2023-06-10T14:09:14;20.02;;;6.85;;
29432;SDS011;16405;53.964;13.448;2023-06-10T14:11:41;16.10;;;5.63;;
29432;SDS011;16405;53.964;13.448;2023-06-10T14:14:12;10.88;;;4.55;;
29432;SDS011;16405;53.964;13.448;2023-06-10T14:16:39;29.23;;;7.07;;
29432;SDS011;16405;53.964;13.448;2023-06-10T14:19:05;13.48;;;5.78;;
29432;SDS011;16405;53.964;13.448;2023-06-10T14:23:56;7.70;;;5.20;;
29432;SDS011;16405;53.964;13.448;2023-06-10T14:26:22;16.10;;;7.95;;
29432;SDS011;16405;53.964;13.448;2023-06-10T14:28:53;26.67;;;7.38;;
29432;SDS011;16405;53.964;13.448;2023-06-10T14:31:19;19.45;;;6.07;;
29432;SDS011;16405;53.964;13.448;2023-06-10T14:36:11;10.80;;;5.55;;
29432;SDS011;16405;53.964;13.448;2023-06-10T14:38:37;13.77;;;5.53;;
29432;SDS011;16405;53.964;13.448;2023-06-10T14:41:03;11.95;;;6.25;;
29432;SDS011;16405;53.964;13.448;2023-06-10T14:43:29;14.50;;;4.80;;
29432;SDS011;16405;53.964;13.448;2023-06-10T14:45:58;15.68;;;6.75;;
29432;SDS011;16405;53.964;13.448;2023-06-10T14:48:24;10.27;;;4.90;;
29432;SDS011;16405;53.964;13.448;2023-06-10T14:50:50;10.77;;;5.80;;
29432;SDS011;16405;53.964;13.448;2023-06-10T14:53:18;14.98;;;6.45;;
29432;SDS011;16405;53.964;13.448;2023-06-10T14:55:45;12.43;;;6.65;;
29432;SDS011;16405;53.964;13.448;2023-06-10T14:58:13;16.42;;;6.05;;
29432;SDS011;16405;53.964;13.448;2023-06-10T15:00:39;11.52;;;5.60;;
29432;SDS011;16405;53.964;13.448;2023-06-10T15:03:05;16.75;;;6.35;;
29432;SDS011;16405;53.964;13.448;2023-06-10T15:05:31;10.68;;;3.90;;
29432;SDS011;16405;53.964;13.448;2023-06-10T15:07:58;15.02;;;5.20;;
29432;SDS011;16405;53.964;13.448;2023-06-10T15:10:31;10.18;;;5.90;;
29432;SDS011;16405;53.964;13.448;2023-06-10T15:12:57;15.27;;;5.60;;
29432;SDS011;16405;53.964;13.448;2023-06-10T15:17:50;23.35;;;6.88;;
29432;SDS011;16405;53.964;13.448;2023-06-10T15:20:17;9.70;;;5.25;;
29432;SDS011;16405;53.964;13.448;2023-06-10T15:22:43;20.30;;;5.78;;
29432;SDS011;16405;53.964;13.448;2023-06-10T15:25:08;16.55;;;5.50;;
29432;SDS011;16405;53.964;13.448;2023-06-10T15:27:34;16.58;;;5.43;;
29432;SDS011;16405;53.964;13.448;2023-06-10T15:32:26;9.03;;;3.27;;
29432;SDS011;16405;53.964;13.448;2023-06-10T15:37:19;21.65;;;4.43;;
29432;SDS011;16405;53.964;13.448;2023-06-10T15:39:47;9.95;;;4.15;;
29432;SDS011;16405;53.964;13.448;2023-06-10T15:42:13;14.82;;;5.43;;
29432;SDS011;16405;53.964;13.448;2023-06-10T15:44:39;25.05;;;5.75;;
29432;SDS011;16405;53.964;13.448;2023-06-10T15:49:30;17.00;;;4.65;;
29432;SDS011;16405;53.964;13.448;2023-06-10T15:51:56;12.63;;;4.47;;
29432;SDS011;16405;53.964;13.448;2023-06-10T15:54:22;27.77;;;4.90;;
29432;SDS011;16405;53.964;13.448;2023-06-10T15:56:53;13.88;;;4.35;;
29432;SDS011;16405;53.964;13.448;2023-06-10T15:59:19;18.55;;;4.32;;
29432;SDS011;16405;53.964;13.448;2023-06-10T16:01:45;11.70;;;5.43;;
29432;SDS011;16405;53.964;13.448;2023-06-10T16:04:12;18.13;;;4.43;;